sensor_id;sensor_type;location;lat;lon;timestamp;P1;durP1;ratioP1;P2;durP2;ratioP2
14316;SDS011;7242;50.858;6.586;2023-11-21T00:02:21;14.07;;;9.50;;
14316;SDS011;7242;50.858;6.586;2023-11-21T00:05:22;13.80;;;9.47;;
14316;SDS011;7242;50.858;6.586;2023-11-21T00:08:23;14.63;;;9.47;;
14316;SDS011;7242;50.858;6.586;2023-11-21T00:11:24;15.60;;;8.77;;
14316;SDS011;7242;50.858;6.586;2023-11-21T00:14:25;11.47;;;8.27;;
14316;SDS011;7242;50.858;6.586;2023-11-21T00:17:26;14.23;;;8.87;;
14316;SDS011;7242;50.858;6.586;2023-11-21T00:20:27;13.23;;;9.07;;
14316;SDS011;7242;50.858;6.586;2023-11-21T00:23:28;15.23;;;9.60;;
14316;SDS011;7242;50.858;6.586;2023-11-21T00:26:29;14.20;;;9.43;;
14316;SDS011;7242;50.858;6.586;2023-11-21T00:29:35;13.57;;;9.17;;
14316;SDS011;7242;50.858;6.586;2023-11-21T00:32:36;13.30;;;9.23;;
14316;SDS011;7242;50.858;6.586;2023-11-21T00:35:38;12.43;;;9.37;;
14316;SDS011;7242;50.858;6.586;2023-11-21T00:38:39;13.93;;;9.30;;
14316;SDS011;7242;50.858;6.586;2023-11-21T00:41:40;14.73;;;9.07;;
14316;SDS011;7242;50.858;6.586;2023-11-21T00:44:40;17.00;;;9.27;;
14316;SDS011;7242;50.858;6.586;2023-11-21T00:47:42;12.53;;;8.60;;
14316;SDS011;7242;50.858;6.586;2023-11-21T00:50:43;15.00;;;9.23;;
14316;SDS011;7242;50.858;6.586;2023-11-21T00:53:45;12.43;;;8.77;;
14316;SDS011;7242;50.858;6.586;2023-11-21T00:56:46;12.07;;;9.03;;
14316;SDS011;7242;50.858;6.586;2023-11-21T00:59:48;14.03;;;8.67;;
14316;SDS011;7242;50.858;6.586;2023-11-21T01:02:48;14.30;;;9.20;;
14316;SDS011;7242;50.858;6.586;2023-11-21T01:05:49;12.83;;;8.83;;
14316;SDS011;7242;50.858;6.586;2023-11-21T01:08:50;14.23;;;9.00;;
14316;SDS011;7242;50.858;6.586;2023-11-21T01:11:51;18.47;;;9.60;;
14316;SDS011;7242;50.858;6.586;2023-11-21T01:14:52;12.70;;;8.67;;
14316;SDS011;7242;50.858;6.586;2023-11-21T01:17:53;13.47;;;9.60;;
14316;SDS011;7242;50.858;6.586;2023-11-21T01:20:54;13.67;;;9.87;;
14316;SDS011;7242;50.858;6.586;2023-11-21T01:23:55;15.20;;;10.33;;
14316;SDS011;7242;50.858;6.586;2023-11-21T01:26:56;13.23;;;9.83;;
14316;SDS011;7242;50.858;6.586;2023-11-21T01:29:57;12.30;;;10.23;;
14316;SDS011;7242;50.858;6.586;2023-11-21T01:32:58;15.50;;;10.90;;
14316;SDS011;7242;50.858;6.586;2023-11-21T01:35:59;13.27;;;10.70;;
14316;SDS011;7242;50.858;6.586;2023-11-21T01:39:00;16.63;;;11.47;;
14316;SDS011;7242;50.858;6.586;2023-11-21T01:42:01;13.37;;;10.97;;
14316;SDS011;7242;50.858;6.586;2023-11-21T01:45:02;17.87;;;11.30;;
14316;SDS011;7242;50.858;6.586;2023-11-21T01:48:05;15.13;;;11.50;;
14316;SDS011;7242;50.858;6.586;2023-11-21T01:51:06;17.30;;;11.43;;
14316;SDS011;7242;50.858;6.586;2023-11-21T01:54:09;18.80;;;12.97;;
14316;SDS011;7242;50.858;6.586;2023-11-21T01:57:11;15.70;;;11.97;;
14316;SDS011;7242;50.858;6.586;2023-11-21T02:00:13;15.37;;;12.43;;
14316;SDS011;7242;50.858;6.586;2023-11-21T02:03:17;17.07;;;12.80;;
14316;SDS011;7242;50.858;6.586;2023-11-21T02:06:18;18.03;;;12.50;;
14316;SDS011;7242;50.858;6.586;2023-11-21T02:09:23;17.50;;;12.70;;
14316;SDS011;7242;50.858;6.586;2023-11-21T02:12:25;18.97;;;13.27;;
14316;SDS011;7242;50.858;6.586;2023-11-21T02:15:26;17.20;;;13.40;;
14316;SDS011;7242;50.858;6.586;2023-11-21T02:18:28;17.83;;;13.60;;
14316;SDS011;7242;50.858;6.586;2023-11-21T02:21:30;19.80;;;14.43;;
14316;SDS011;7242;50.858;6.586;2023-11-21T02:24:31;16.67;;;13.93;;
14316;SDS011;7242;50.858;6.586;2023-11-21T02:27:32;18.93;;;14.40;;
14316;SDS011;7242;50.858;6.586;2023-11-21T02:30:33;16.87;;;13.83;;
14316;SDS011;7242;50.858;6.586;2023-11-21T02:33:34;17.73;;;14.03;;
14316;SDS011;7242;50.858;6.586;2023-11-21T02:36:34;18.03;;;13.80;;
14316;SDS011;7242;50.858;6.586;2023-11-21T02:39:35;20.13;;;14.13;;
14316;SDS011;7242;50.858;6.586;2023-11-21T02:42:40;17.63;;;13.97;;
14316;SDS011;7242;50.858;6.586;2023-11-21T02:45:41;17.97;;;14.20;;
14316;SDS011;7242;50.858;6.586;2023-11-21T02:48:42;17.90;;;14.03;;
14316;SDS011;7242;50.858;6.586;2023-11-21T02:51:43;19.13;;;13.97;;
14316;SDS011;7242;50.858;6.586;2023-11-21T02:54:44;19.87;;;14.67;;
14316;SDS011;7242;50.858;6.586;2023-11-21T02:57:45;17.07;;;13.67;;
14316;SDS011;7242;50.858;6.586;2023-11-21T03:00:47;16.63;;;14.27;;
14316;SDS011;7242;50.858;6.586;2023-11-21T03:03:47;19.57;;;14.83;;
14316;SDS011;7242;50.858;6.586;2023-11-21T03:06:51;22.00;;;15.60;;
14316;SDS011;7242;50.858;6.586;2023-11-21T03:09:52;21.50;;;14.97;;
14316;SDS011;7242;50.858;6.586;2023-11-21T03:12:53;20.87;;;15.30;;
14316;SDS011;7242;50.858;6.586;2023-11-21T03:15:54;18.37;;;13.90;;
14316;SDS011;7242;50.858;6.586;2023-11-21T03:18:56;20.67;;;15.00;;
14316;SDS011;7242;50.858;6.586;2023-11-21T03:21:56;21.50;;;15.10;;
14316;SDS011;7242;50.858;6.586;2023-11-21T03:24:57;23.13;;;14.80;;
14316;SDS011;7242;50.858;6.586;2023-11-21T03:27:58;18.30;;;14.27;;
14316;SDS011;7242;50.858;6.586;2023-11-21T03:30:59;20.47;;;14.50;;
14316;SDS011;7242;50.858;6.586;2023-11-21T03:34:00;25.20;;;15.50;;
14316;SDS011;7242;50.858;6.586;2023-11-21T03:37:00;22.33;;;15.27;;
14316;SDS011;7242;50.858;6.586;2023-11-21T03:40:02;27.30;;;15.93;;
14316;SDS011;7242;50.858;6.586;2023-11-21T03:43:04;26.27;;;17.07;;
14316;SDS011;7242;50.858;6.586;2023-11-21T03:46:05;29.73;;;18.20;;
14316;SDS011;7242;50.858;6.586;2023-11-21T03:49:06;27.67;;;19.17;;
14316;SDS011;7242;50.858;6.586;2023-11-21T03:52:08;30.47;;;18.73;;
14316;SDS011;7242;50.858;6.586;2023-11-21T03:55:10;28.10;;;19.33;;
14316;SDS011;7242;50.858;6.586;2023-11-21T03:58:10;28.27;;;21.07;;
14316;SDS011;7242;50.858;6.586;2023-11-21T04:01:11;31.80;;;21.27;;
14316;SDS011;7242;50.858;6.586;2023-11-21T04:04:12;32.43;;;21.83;;
14316;SDS011;7242;50.858;6.586;2023-11-21T04:07:13;32.13;;;21.03;;
14316;SDS011;7242;50.858;6.586;2023-11-21T04:10:14;32.17;;;22.57;;
14316;SDS011;7242;50.858;6.586;2023-11-21T04:13:15;35.23;;;22.83;;
14316;SDS011;7242;50.858;6.586;2023-11-21T04:16:16;36.97;;;22.80;;
14316;SDS011;7242;50.858;6.586;2023-11-21T04:19:18;40.43;;;22.63;;
14316;SDS011;7242;50.858;6.586;2023-11-21T04:22:19;35.17;;;21.27;;
14316;SDS011;7242;50.858;6.586;2023-11-21T04:25:20;33.67;;;21.77;;
14316;SDS011;7242;50.858;6.586;2023-11-21T04:28:23;35.70;;;21.37;;
14316;SDS011;7242;50.858;6.586;2023-11-21T04:31:24;33.50;;;21.70;;
14316;SDS011;7242;50.858;6.586;2023-11-21T04:34:25;30.27;;;21.37;;
14316;SDS011;7242;50.858;6.586;2023-11-21T04:37:25;32.43;;;20.57;;
14316;SDS011;7242;50.858;6.586;2023-11-21T04:40:27;31.43;;;20.83;;
14316;SDS011;7242;50.858;6.586;2023-11-21T04:43:27;30.47;;;20.77;;
14316;SDS011;7242;50.858;6.586;2023-11-21T04:46:28;36.33;;;22.43;;
14316;SDS011;7242;50.858;6.586;2023-11-21T04:49:29;31.13;;;21.07;;
14316;SDS011;7242;50.858;6.586;2023-11-21T04:52:30;30.83;;;21.27;;
14316;SDS011;7242;50.858;6.586;2023-11-21T04:55:32;32.97;;;21.07;;
14316;SDS011;7242;50.858;6.586;2023-11-21T04:58:33;30.60;;;20.07;;
14316;SDS011;7242;50.858;6.586;2023-11-21T05:01:35;27.90;;;19.43;;
14316;SDS011;7242;50.858;6.586;2023-11-21T05:04:36;26.40;;;19.43;;
14316;SDS011;7242;50.858;6.586;2023-11-21T05:07:38;28.10;;;19.07;;
14316;SDS011;7242;50.858;6.586;2023-11-21T05:10:39;28.53;;;19.97;;
14316;SDS011;7242;50.858;6.586;2023-11-21T05:13:40;23.70;;;17.37;;
14316;SDS011;7242;50.858;6.586;2023-11-21T05:16:41;25.97;;;17.90;;
14316;SDS011;7242;50.858;6.586;2023-11-21T05:19:42;25.63;;;18.37;;
14316;SDS011;7242;50.858;6.586;2023-11-21T05:22:45;30.03;;;18.23;;
14316;SDS011;7242;50.858;6.586;2023-11-21T05:25:46;24.27;;;17.53;;
14316;SDS011;7242;50.858;6.586;2023-11-21T05:28:47;25.90;;;18.07;;
14316;SDS011;7242;50.858;6.586;2023-11-21T05:31:48;28.10;;;17.60;;
14316;SDS011;7242;50.858;6.586;2023-11-21T05:34:50;21.47;;;16.33;;
14316;SDS011;7242;50.858;6.586;2023-11-21T05:37:51;25.27;;;16.73;;
14316;SDS011;7242;50.858;6.586;2023-11-21T05:40:52;23.40;;;16.63;;
14316;SDS011;7242;50.858;6.586;2023-11-21T05:43:52;25.07;;;18.47;;
14316;SDS011;7242;50.858;6.586;2023-11-21T05:46:54;23.03;;;17.00;;
14316;SDS011;7242;50.858;6.586;2023-11-21T05:49:55;25.80;;;18.37;;
14316;SDS011;7242;50.858;6.586;2023-11-21T05:52:56;24.77;;;16.47;;
14316;SDS011;7242;50.858;6.586;2023-11-21T05:56:00;23.13;;;16.53;;
14316;SDS011;7242;50.858;6.586;2023-11-21T05:59:00;23.23;;;16.53;;
14316;SDS011;7242;50.858;6.586;2023-11-21T06:02:01;26.53;;;16.53;;
14316;SDS011;7242;50.858;6.586;2023-11-21T06:05:03;23.03;;;16.53;;
14316;SDS011;7242;50.858;6.586;2023-11-21T06:08:04;26.97;;;18.07;;
14316;SDS011;7242;50.858;6.586;2023-11-21T06:11:06;30.67;;;19.10;;
14316;SDS011;7242;50.858;6.586;2023-11-21T06:14:07;28.93;;;16.87;;
14316;SDS011;7242;50.858;6.586;2023-11-21T06:17:09;26.03;;;16.37;;
14316;SDS011;7242;50.858;6.586;2023-11-21T06:20:11;28.33;;;16.33;;
14316;SDS011;7242;50.858;6.586;2023-11-21T06:23:15;28.30;;;17.20;;
14316;SDS011;7242;50.858;6.586;2023-11-21T06:26:16;25.80;;;15.27;;
14316;SDS011;7242;50.858;6.586;2023-11-21T06:29:17;25.47;;;15.90;;
14316;SDS011;7242;50.858;6.586;2023-11-21T06:32:18;24.73;;;15.20;;
14316;SDS011;7242;50.858;6.586;2023-11-21T06:35:20;25.97;;;14.57;;
14316;SDS011;7242;50.858;6.586;2023-11-21T06:38:21;26.00;;;16.13;;
14316;SDS011;7242;50.858;6.586;2023-11-21T06:41:22;25.13;;;16.07;;
14316;SDS011;7242;50.858;6.586;2023-11-21T06:44:23;25.63;;;16.40;;
14316;SDS011;7242;50.858;6.586;2023-11-21T06:47:25;28.57;;;18.37;;
14316;SDS011;7242;50.858;6.586;2023-11-21T06:50:26;25.93;;;18.53;;
14316;SDS011;7242;50.858;6.586;2023-11-21T06:53:27;28.83;;;18.47;;
14316;SDS011;7242;50.858;6.586;2023-11-21T06:56:27;28.97;;;19.37;;
14316;SDS011;7242;50.858;6.586;2023-11-21T06:59:28;29.00;;;19.07;;
14316;SDS011;7242;50.858;6.586;2023-11-21T07:02:29;29.30;;;18.60;;
14316;SDS011;7242;50.858;6.586;2023-11-21T07:05:31;33.73;;;21.50;;
14316;SDS011;7242;50.858;6.586;2023-11-21T07:08:32;32.50;;;20.67;;
14316;SDS011;7242;50.858;6.586;2023-11-21T07:11:33;34.93;;;21.30;;
14316;SDS011;7242;50.858;6.586;2023-11-21T07:14:34;31.53;;;20.90;;
14316;SDS011;7242;50.858;6.586;2023-11-21T07:17:35;35.77;;;20.57;;
14316;SDS011;7242;50.858;6.586;2023-11-21T07:20:36;32.93;;;19.87;;
14316;SDS011;7242;50.858;6.586;2023-11-21T07:23:37;32.47;;;20.97;;
14316;SDS011;7242;50.858;6.586;2023-11-21T07:26:38;32.23;;;20.43;;
14316;SDS011;7242;50.858;6.586;2023-11-21T07:29:41;31.03;;;20.10;;
14316;SDS011;7242;50.858;6.586;2023-11-21T07:32:42;33.37;;;20.07;;
14316;SDS011;7242;50.858;6.586;2023-11-21T07:35:45;34.20;;;21.47;;
14316;SDS011;7242;50.858;6.586;2023-11-21T07:38:46;34.87;;;20.97;;
14316;SDS011;7242;50.858;6.586;2023-11-21T07:41:49;34.67;;;20.70;;
14316;SDS011;7242;50.858;6.586;2023-11-21T07:44:50;31.80;;;20.10;;
14316;SDS011;7242;50.858;6.586;2023-11-21T07:47:52;33.17;;;20.27;;
14316;SDS011;7242;50.858;6.586;2023-11-21T07:50:53;29.60;;;20.10;;
14316;SDS011;7242;50.858;6.586;2023-11-21T07:53:56;30.07;;;18.80;;
14316;SDS011;7242;50.858;6.586;2023-11-21T07:56:56;37.40;;;21.27;;
14316;SDS011;7242;50.858;6.586;2023-11-21T07:59:57;28.97;;;19.13;;
14316;SDS011;7242;50.858;6.586;2023-11-21T08:02:58;36.33;;;21.40;;
14316;SDS011;7242;50.858;6.586;2023-11-21T08:05:59;33.23;;;19.93;;
14316;SDS011;7242;50.858;6.586;2023-11-21T08:09:00;31.03;;;20.40;;
14316;SDS011;7242;50.858;6.586;2023-11-21T08:12:01;37.63;;;22.60;;
14316;SDS011;7242;50.858;6.586;2023-11-21T08:15:03;34.50;;;20.60;;
14316;SDS011;7242;50.858;6.586;2023-11-21T08:18:05;35.97;;;22.23;;
14316;SDS011;7242;50.858;6.586;2023-11-21T08:21:07;49.80;;;23.03;;
14316;SDS011;7242;50.858;6.586;2023-11-21T08:24:08;38.40;;;21.83;;
14316;SDS011;7242;50.858;6.586;2023-11-21T08:27:11;38.53;;;23.83;;
14316;SDS011;7242;50.858;6.586;2023-11-21T08:30:12;42.57;;;23.77;;
14316;SDS011;7242;50.858;6.586;2023-11-21T08:33:17;39.60;;;23.30;;
14316;SDS011;7242;50.858;6.586;2023-11-21T08:36:17;38.77;;;22.50;;
14316;SDS011;7242;50.858;6.586;2023-11-21T08:39:18;39.57;;;22.40;;
14316;SDS011;7242;50.858;6.586;2023-11-21T08:42:19;46.73;;;23.77;;
14316;SDS011;7242;50.858;6.586;2023-11-21T08:45:20;41.70;;;21.37;;
14316;SDS011;7242;50.858;6.586;2023-11-21T08:48:22;39.37;;;21.47;;
14316;SDS011;7242;50.858;6.586;2023-11-21T08:51:22;38.33;;;21.50;;
14316;SDS011;7242;50.858;6.586;2023-11-21T08:54:23;40.93;;;22.10;;
14316;SDS011;7242;50.858;6.586;2023-11-21T08:57:25;43.83;;;24.23;;
14316;SDS011;7242;50.858;6.586;2023-11-21T09:00:26;43.57;;;23.03;;
14316;SDS011;7242;50.858;6.586;2023-11-21T09:03:27;43.50;;;23.97;;
14316;SDS011;7242;50.858;6.586;2023-11-21T09:06:28;37.77;;;21.90;;
14316;SDS011;7242;50.858;6.586;2023-11-21T09:09:30;44.37;;;23.50;;
14316;SDS011;7242;50.858;6.586;2023-11-21T09:12:31;37.37;;;19.93;;
14316;SDS011;7242;50.858;6.586;2023-11-21T09:15:32;45.47;;;22.30;;
14316;SDS011;7242;50.858;6.586;2023-11-21T09:18:33;40.17;;;20.73;;
14316;SDS011;7242;50.858;6.586;2023-11-21T09:21:34;38.87;;;20.97;;
14316;SDS011;7242;50.858;6.586;2023-11-21T09:24:36;48.27;;;22.10;;
14316;SDS011;7242;50.858;6.586;2023-11-21T09:27:37;49.43;;;23.13;;
14316;SDS011;7242;50.858;6.586;2023-11-21T09:30:38;43.70;;;21.70;;
14316;SDS011;7242;50.858;6.586;2023-11-21T09:33:39;52.03;;;23.60;;
14316;SDS011;7242;50.858;6.586;2023-11-21T09:36:40;46.47;;;22.70;;
14316;SDS011;7242;50.858;6.586;2023-11-21T09:39:41;48.73;;;25.70;;
14316;SDS011;7242;50.858;6.586;2023-11-21T09:42:43;47.37;;;22.90;;
14316;SDS011;7242;50.858;6.586;2023-11-21T09:45:53;46.70;;;22.63;;
14316;SDS011;7242;50.858;6.586;2023-11-21T09:48:57;42.33;;;20.63;;
14316;SDS011;7242;50.858;6.586;2023-11-21T09:51:58;45.17;;;21.70;;
14316;SDS011;7242;50.858;6.586;2023-11-21T09:55:03;39.83;;;18.60;;
14316;SDS011;7242;50.858;6.586;2023-11-21T09:58:05;41.87;;;18.90;;
14316;SDS011;7242;50.858;6.586;2023-11-21T10:01:08;41.20;;;20.50;;
14316;SDS011;7242;50.858;6.586;2023-11-21T10:04:09;33.80;;;17.70;;
14316;SDS011;7242;50.858;6.586;2023-11-21T10:07:13;42.43;;;20.10;;
14316;SDS011;7242;50.858;6.586;2023-11-21T10:10:20;41.53;;;20.93;;
14316;SDS011;7242;50.858;6.586;2023-11-21T10:13:23;40.33;;;19.57;;
14316;SDS011;7242;50.858;6.586;2023-11-21T10:16:25;36.87;;;19.00;;
14316;SDS011;7242;50.858;6.586;2023-11-21T10:19:27;34.07;;;17.77;;
14316;SDS011;7242;50.858;6.586;2023-11-21T10:22:29;31.97;;;16.67;;
14316;SDS011;7242;50.858;6.586;2023-11-21T10:25:30;36.17;;;17.00;;
14316;SDS011;7242;50.858;6.586;2023-11-21T10:28:34;32.43;;;16.07;;
14316;SDS011;7242;50.858;6.586;2023-11-21T10:31:37;35.27;;;17.37;;
14316;SDS011;7242;50.858;6.586;2023-11-21T10:34:38;32.07;;;17.27;;
14316;SDS011;7242;50.858;6.586;2023-11-21T10:37:41;29.80;;;15.87;;
14316;SDS011;7242;50.858;6.586;2023-11-21T10:40:44;32.37;;;16.30;;
14316;SDS011;7242;50.858;6.586;2023-11-21T10:43:46;32.77;;;16.23;;
14316;SDS011;7242;50.858;6.586;2023-11-21T10:46:48;30.07;;;15.17;;
14316;SDS011;7242;50.858;6.586;2023-11-21T10:49:56;33.90;;;16.00;;
14316;SDS011;7242;50.858;6.586;2023-11-21T10:52:57;32.07;;;15.57;;
14316;SDS011;7242;50.858;6.586;2023-11-21T10:56:00;34.23;;;17.07;;
14316;SDS011;7242;50.858;6.586;2023-11-21T10:59:11;29.10;;;14.83;;
14316;SDS011;7242;50.858;6.586;2023-11-21T11:02:24;28.50;;;14.73;;
14316;SDS011;7242;50.858;6.586;2023-11-21T11:05:29;32.07;;;16.07;;
14316;SDS011;7242;50.858;6.586;2023-11-21T11:08:32;26.87;;;12.70;;
14316;SDS011;7242;50.858;6.586;2023-11-21T11:11:34;31.93;;;15.80;;
14316;SDS011;7242;50.858;6.586;2023-11-21T11:14:40;27.80;;;13.80;;
14316;SDS011;7242;50.858;6.586;2023-11-21T11:17:43;27.73;;;14.13;;
14316;SDS011;7242;50.858;6.586;2023-11-21T11:20:45;30.10;;;14.57;;
14316;SDS011;7242;50.858;6.586;2023-11-21T11:36:59;23.80;;;12.90;;
14316;SDS011;7242;50.858;6.586;2023-11-21T11:40:05;26.73;;;13.73;;
14316;SDS011;7242;50.858;6.586;2023-11-21T11:43:07;25.67;;;12.53;;
14316;SDS011;7242;50.858;6.586;2023-11-21T11:46:07;23.53;;;12.33;;
14316;SDS011;7242;50.858;6.586;2023-11-21T11:49:08;22.83;;;11.50;;
14316;SDS011;7242;50.858;6.586;2023-11-21T11:55:35;24.97;;;13.93;;
14316;SDS011;7242;50.858;6.586;2023-11-21T11:58:37;23.90;;;13.33;;
14316;SDS011;7242;50.858;6.586;2023-11-21T12:01:38;23.50;;;13.10;;
14316;SDS011;7242;50.858;6.586;2023-11-21T12:04:40;30.27;;;12.97;;
14316;SDS011;7242;50.858;6.586;2023-11-21T12:07:43;25.57;;;12.80;;
14316;SDS011;7242;50.858;6.586;2023-11-21T12:10:50;21.23;;;12.53;;
14316;SDS011;7242;50.858;6.586;2023-11-21T12:13:54;22.10;;;11.83;;
14316;SDS011;7242;50.858;6.586;2023-11-21T12:16:55;22.97;;;12.20;;
14316;SDS011;7242;50.858;6.586;2023-11-21T12:20:01;25.77;;;12.60;;
14316;SDS011;7242;50.858;6.586;2023-11-21T12:23:04;30.03;;;14.57;;
14316;SDS011;7242;50.858;6.586;2023-11-21T12:26:05;26.37;;;13.40;;
14316;SDS011;7242;50.858;6.586;2023-11-21T12:29:06;26.43;;;14.47;;
14316;SDS011;7242;50.858;6.586;2023-11-21T12:32:07;30.30;;;14.40;;
14316;SDS011;7242;50.858;6.586;2023-11-21T12:35:11;25.63;;;12.60;;
14316;SDS011;7242;50.858;6.586;2023-11-21T12:38:12;26.50;;;13.40;;
14316;SDS011;7242;50.858;6.586;2023-11-21T12:41:13;24.97;;;12.47;;
14316;SDS011;7242;50.858;6.586;2023-11-21T12:44:17;28.07;;;13.03;;
14316;SDS011;7242;50.858;6.586;2023-11-21T12:47:19;25.40;;;12.80;;
14316;SDS011;7242;50.858;6.586;2023-11-21T12:50:22;25.07;;;12.47;;
14316;SDS011;7242;50.858;6.586;2023-11-21T12:53:23;23.20;;;11.97;;
14316;SDS011;7242;50.858;6.586;2023-11-21T12:56:24;21.77;;;11.67;;
14316;SDS011;7242;50.858;6.586;2023-11-21T12:59:25;26.60;;;12.30;;
14316;SDS011;7242;50.858;6.586;2023-11-21T13:02:26;25.33;;;12.40;;
14316;SDS011;7242;50.858;6.586;2023-11-21T13:05:28;20.97;;;11.07;;
14316;SDS011;7242;50.858;6.586;2023-11-21T13:08:30;19.20;;;10.80;;
14316;SDS011;7242;50.858;6.586;2023-11-21T13:11:36;18.77;;;9.93;;
14316;SDS011;7242;50.858;6.586;2023-11-21T13:14:37;18.77;;;10.10;;
14316;SDS011;7242;50.858;6.586;2023-11-21T13:17:40;16.87;;;9.40;;
14316;SDS011;7242;50.858;6.586;2023-11-21T13:20:41;20.13;;;9.53;;
14316;SDS011;7242;50.858;6.586;2023-11-21T13:23:43;19.03;;;10.00;;
14316;SDS011;7242;50.858;6.586;2023-11-21T13:26:46;22.10;;;10.63;;
14316;SDS011;7242;50.858;6.586;2023-11-21T13:29:48;24.60;;;11.07;;
14316;SDS011;7242;50.858;6.586;2023-11-21T13:32:50;17.57;;;10.17;;
14316;SDS011;7242;50.858;6.586;2023-11-21T13:35:51;21.03;;;10.63;;
14316;SDS011;7242;50.858;6.586;2023-11-21T13:38:53;17.47;;;9.47;;
14316;SDS011;7242;50.858;6.586;2023-11-21T13:41:54;19.90;;;10.10;;
14316;SDS011;7242;50.858;6.586;2023-11-21T13:44:57;20.13;;;9.47;;
14316;SDS011;7242;50.858;6.586;2023-11-21T13:47:58;19.73;;;9.07;;
14316;SDS011;7242;50.858;6.586;2023-11-21T13:50:59;18.47;;;9.77;;
14316;SDS011;7242;50.858;6.586;2023-11-21T13:54:08;14.80;;;8.23;;
14316;SDS011;7242;50.858;6.586;2023-11-21T13:57:09;15.47;;;8.83;;
14316;SDS011;7242;50.858;6.586;2023-11-21T14:00:11;16.53;;;8.70;;
14316;SDS011;7242;50.858;6.586;2023-11-21T14:03:32;18.77;;;9.33;;
14316;SDS011;7242;50.858;6.586;2023-11-21T14:06:39;21.77;;;9.27;;
14316;SDS011;7242;50.858;6.586;2023-11-21T14:09:48;14.43;;;8.13;;
14316;SDS011;7242;50.858;6.586;2023-11-21T14:12:50;15.13;;;8.57;;
14316;SDS011;7242;50.858;6.586;2023-11-21T14:15:52;17.07;;;9.03;;
14316;SDS011;7242;50.858;6.586;2023-11-21T14:19:02;17.17;;;8.70;;
14316;SDS011;7242;50.858;6.586;2023-11-21T14:22:14;16.13;;;9.03;;
14316;SDS011;7242;50.858;6.586;2023-11-21T14:25:15;32.60;;;16.47;;
14316;SDS011;7242;50.858;6.586;2023-11-21T14:28:18;22.20;;;13.30;;
14316;SDS011;7242;50.858;6.586;2023-11-21T14:31:19;26.10;;;14.40;;
14316;SDS011;7242;50.858;6.586;2023-11-21T14:34:20;21.10;;;11.33;;
14316;SDS011;7242;50.858;6.586;2023-11-21T14:37:21;20.63;;;10.17;;
14316;SDS011;7242;50.858;6.586;2023-11-21T14:40:22;22.43;;;10.37;;
14316;SDS011;7242;50.858;6.586;2023-11-21T14:43:24;21.43;;;10.67;;
14316;SDS011;7242;50.858;6.586;2023-11-21T14:46:29;19.90;;;9.63;;
14316;SDS011;7242;50.858;6.586;2023-11-21T14:49:31;17.97;;;9.87;;
14316;SDS011;7242;50.858;6.586;2023-11-21T14:52:43;21.70;;;10.77;;
14316;SDS011;7242;50.858;6.586;2023-11-21T14:55:55;22.80;;;10.93;;
14316;SDS011;7242;50.858;6.586;2023-11-21T14:59:00;20.63;;;10.57;;
14316;SDS011;7242;50.858;6.586;2023-11-21T15:02:16;17.23;;;10.37;;
14316;SDS011;7242;50.858;6.586;2023-11-21T15:05:22;16.17;;;8.73;;
14316;SDS011;7242;50.858;6.586;2023-11-21T15:08:24;19.13;;;9.90;;
14316;SDS011;7242;50.858;6.586;2023-11-21T15:11:32;19.10;;;9.50;;
14316;SDS011;7242;50.858;6.586;2023-11-21T15:14:33;20.13;;;10.07;;
14316;SDS011;7242;50.858;6.586;2023-11-21T15:17:36;19.93;;;9.97;;
14316;SDS011;7242;50.858;6.586;2023-11-21T15:20:37;20.30;;;10.03;;
14316;SDS011;7242;50.858;6.586;2023-11-21T15:23:39;21.00;;;10.97;;
14316;SDS011;7242;50.858;6.586;2023-11-21T15:26:41;22.03;;;10.73;;
14316;SDS011;7242;50.858;6.586;2023-11-21T15:29:43;20.13;;;11.47;;
14316;SDS011;7242;50.858;6.586;2023-11-21T15:32:43;20.20;;;10.23;;
14316;SDS011;7242;50.858;6.586;2023-11-21T15:35:45;22.30;;;11.53;;
14316;SDS011;7242;50.858;6.586;2023-11-21T15:38:46;25.17;;;12.20;;
14316;SDS011;7242;50.858;6.586;2023-11-21T15:41:47;21.27;;;10.10;;
14316;SDS011;7242;50.858;6.586;2023-11-21T15:44:48;20.57;;;11.07;;
14316;SDS011;7242;50.858;6.586;2023-11-21T15:47:50;21.90;;;11.30;;
14316;SDS011;7242;50.858;6.586;2023-11-21T15:50:51;19.70;;;9.90;;
14316;SDS011;7242;50.858;6.586;2023-11-21T15:53:52;27.40;;;12.93;;
14316;SDS011;7242;50.858;6.586;2023-11-21T15:56:53;29.07;;;14.67;;
14316;SDS011;7242;50.858;6.586;2023-11-21T15:59:59;23.13;;;13.43;;
14316;SDS011;7242;50.858;6.586;2023-11-21T16:02:59;27.27;;;13.23;;
14316;SDS011;7242;50.858;6.586;2023-11-21T16:06:00;27.23;;;13.40;;
14316;SDS011;7242;50.858;6.586;2023-11-21T16:09:03;22.17;;;12.33;;
14316;SDS011;7242;50.858;6.586;2023-11-21T16:12:06;18.87;;;11.00;;
14316;SDS011;7242;50.858;6.586;2023-11-21T16:15:07;22.40;;;12.60;;
14316;SDS011;7242;50.858;6.586;2023-11-21T16:18:09;20.47;;;12.80;;
14316;SDS011;7242;50.858;6.586;2023-11-21T16:21:10;26.77;;;14.00;;
14316;SDS011;7242;50.858;6.586;2023-11-21T16:24:12;19.80;;;13.67;;
14316;SDS011;7242;50.858;6.586;2023-11-21T16:27:12;19.90;;;13.60;;
14316;SDS011;7242;50.858;6.586;2023-11-21T16:30:13;25.97;;;17.20;;
14316;SDS011;7242;50.858;6.586;2023-11-21T16:33:14;27.70;;;20.60;;
14316;SDS011;7242;50.858;6.586;2023-11-21T16:36:15;21.37;;;16.63;;
14316;SDS011;7242;50.858;6.586;2023-11-21T16:39:18;23.63;;;16.10;;
14316;SDS011;7242;50.858;6.586;2023-11-21T16:42:21;20.60;;;15.80;;
14316;SDS011;7242;50.858;6.586;2023-11-21T16:45:22;23.30;;;17.13;;
14316;SDS011;7242;50.858;6.586;2023-11-21T16:48:23;22.13;;;15.90;;
14316;SDS011;7242;50.858;6.586;2023-11-21T16:51:23;22.70;;;16.67;;
14316;SDS011;7242;50.858;6.586;2023-11-21T16:54:24;22.07;;;17.77;;
14316;SDS011;7242;50.858;6.586;2023-11-21T16:57:25;21.47;;;16.77;;
14316;SDS011;7242;50.858;6.586;2023-11-21T17:00:26;23.13;;;17.93;;
14316;SDS011;7242;50.858;6.586;2023-11-21T17:03:27;23.90;;;18.63;;
14316;SDS011;7242;50.858;6.586;2023-11-21T17:06:28;23.83;;;18.33;;
14316;SDS011;7242;50.858;6.586;2023-11-21T17:09:31;23.17;;;18.33;;
14316;SDS011;7242;50.858;6.586;2023-11-21T17:12:32;22.37;;;17.57;;
14316;SDS011;7242;50.858;6.586;2023-11-21T17:15:33;22.90;;;18.23;;
14316;SDS011;7242;50.858;6.586;2023-11-21T17:18:34;21.90;;;17.90;;
14316;SDS011;7242;50.858;6.586;2023-11-21T17:21:35;23.40;;;19.50;;
14316;SDS011;7242;50.858;6.586;2023-11-21T17:24:36;25.77;;;20.60;;
14316;SDS011;7242;50.858;6.586;2023-11-21T17:27:38;25.77;;;21.60;;
14316;SDS011;7242;50.858;6.586;2023-11-21T17:30:39;23.07;;;19.60;;
14316;SDS011;7242;50.858;6.586;2023-11-21T17:33:40;20.53;;;17.30;;
14316;SDS011;7242;50.858;6.586;2023-11-21T17:36:42;21.07;;;17.13;;
14316;SDS011;7242;50.858;6.586;2023-11-21T17:39:42;23.63;;;18.00;;
14316;SDS011;7242;50.858;6.586;2023-11-21T17:42:43;22.17;;;18.37;;
14316;SDS011;7242;50.858;6.586;2023-11-21T17:45:44;23.20;;;18.83;;
14316;SDS011;7242;50.858;6.586;2023-11-21T17:48:47;21.47;;;16.97;;
14316;SDS011;7242;50.858;6.586;2023-11-21T17:51:49;23.27;;;16.20;;
14316;SDS011;7242;50.858;6.586;2023-11-21T17:54:50;17.33;;;15.10;;
14316;SDS011;7242;50.858;6.586;2023-11-21T17:57:51;19.40;;;15.63;;
14316;SDS011;7242;50.858;6.586;2023-11-21T18:00:52;19.13;;;15.63;;
14316;SDS011;7242;50.858;6.586;2023-11-21T18:03:53;15.87;;;13.97;;
14316;SDS011;7242;50.858;6.586;2023-11-21T18:06:54;15.73;;;13.50;;
14316;SDS011;7242;50.858;6.586;2023-11-21T18:09:57;13.97;;;12.47;;
14316;SDS011;7242;50.858;6.586;2023-11-21T18:12:58;14.07;;;12.07;;
14316;SDS011;7242;50.858;6.586;2023-11-21T18:15:59;15.03;;;12.93;;
14316;SDS011;7242;50.858;6.586;2023-11-21T18:19:01;15.67;;;12.87;;